createdAt,value
2023-05-03T00:01:14.563Z,97729.88
2023-05-03T00:03:41.018Z,97735.16
2023-05-03T00:06:14.944Z,97731.94
2023-05-03T00:08:41.953Z,97741.72
2023-05-03T00:11:08.808Z,97737.28
2023-05-03T00:13:35.667Z,97732.91
2023-05-03T00:16:02.152Z,97729.06
2023-05-03T00:18:29.275Z,97738.59
2023-05-03T00:20:57.029Z,97737.84
2023-05-03T00:23:23.527Z,97736.81
2023-05-03T00:25:57.380Z,97733.44
2023-05-03T00:28:24.966Z,97733.81
2023-05-03T00:30:52.576Z,97727.59
2023-05-03T00:33:19.145Z,97733.72
2023-05-03T00:35:46.019Z,97736.34
2023-05-03T00:38:14.295Z,97731.50
2023-05-03T00:40:40.991Z,97734.78
2023-05-03T00:43:07.786Z,97728.72
2023-05-03T00:45:35.033Z,97728.72
2023-05-03T00:48:01.784Z,97723.44
2023-05-03T00:50:29.329Z,97725.09
2023-05-03T00:52:56.331Z,97724.34
2023-05-03T00:55:22.981Z,97723.13
2023-05-03T00:57:49.416Z,97727.47
2023-05-03T01:00:16.581Z,97722.47
2023-05-03T01:02:43.170Z,97729.59
2023-05-03T01:05:10.925Z,97717.88
2023-05-03T01:07:49.495Z,97724.59
2023-05-03T01:10:46.853Z,97724.91
2023-05-03T01:13:24.955Z,97718.72
2023-05-03T01:15:59.289Z,97713.91
2023-05-03T01:18:32.340Z,97716.56
2023-05-03T01:21:01.436Z,97715.56
2023-05-03T01:23:46.311Z,97711.13
2023-05-03T01:26:16.913Z,97720.44
2023-05-03T01:28:43.558Z,97711.16
2023-05-03T01:31:10.637Z,97704.34
2023-05-03T01:33:44.770Z,97698.28
2023-05-03T01:36:23.107Z,97702.72
2023-05-03T01:38:50.067Z,97708.22
2023-05-03T01:41:19.781Z,97700.56
2023-05-03T01:43:47.321Z,97698.34
2023-05-03T01:46:14.114Z,97708.47
2023-05-03T01:48:40.601Z,97698.75
2023-05-03T01:51:07.080Z,97706.22
2023-05-03T01:53:33.548Z,97713.72
2023-05-03T01:56:00.048Z,97705.41
2023-05-03T01:58:26.784Z,97702.41
2023-05-03T02:00:53.360Z,97716.16
2023-05-03T02:03:20.521Z,97717.53
2023-05-03T02:05:48.353Z,97710.09
2023-05-03T02:08:14.690Z,97704.00
2023-05-03T02:10:44.255Z,97704.81
2023-05-03T02:13:10.702Z,97700.59
2023-05-03T02:15:37.121Z,97705.63
2023-05-03T02:18:03.707Z,97695.13
2023-05-03T02:20:35.356Z,97703.22
2023-05-03T02:23:01.990Z,97695.53
2023-05-03T02:25:28.462Z,97697.97
2023-05-03T02:27:55.130Z,97694.72
2023-05-03T02:30:21.629Z,97695.13
2023-05-03T02:32:48.033Z,97709.25
2023-05-03T02:35:14.638Z,97697.94
2023-05-03T02:37:41.094Z,97690.06
2023-05-03T02:40:09.564Z,97698.75
2023-05-03T02:42:36.015Z,97702.56
2023-05-03T02:45:03.486Z,97696.75
2023-05-03T02:47:30.009Z,97695.94
2023-05-03T02:49:56.443Z,97696.13
2023-05-03T02:52:22.834Z,97696.75
2023-05-03T02:54:49.634Z,97695.50
2023-05-03T02:57:16.208Z,97694.31
2023-05-03T02:59:42.648Z,97689.84
2023-05-03T03:02:09.040Z,97694.28
2023-05-03T03:04:35.583Z,97692.28
2023-05-03T03:07:02.194Z,97701.34
2023-05-03T03:09:28.603Z,97696.31
2023-05-03T03:11:55.055Z,97691.44
2023-05-03T03:14:21.725Z,97689.25
2023-05-03T03:16:51.243Z,97685.81
2023-05-03T03:19:17.656Z,97690.63
2023-05-03T03:21:44.101Z,97690.03
2023-05-03T03:24:10.527Z,97684.19
2023-05-03T03:26:37.034Z,97689.63
2023-05-03T03:29:03.420Z,97686.19
2023-05-03T03:31:29.936Z,97690.25
2023-05-03T03:33:56.858Z,97686.78
2023-05-03T03:36:23.413Z,97686.16
2023-05-03T03:38:49.961Z,97690.19
2023-05-03T03:41:16.385Z,97697.47
2023-05-03T03:43:42.918Z,97693.00
2023-05-03T03:46:09.350Z,97694.59
2023-05-03T03:48:35.768Z,97696.63
2023-05-03T03:51:02.275Z,97697.00
2023-05-03T03:53:28.711Z,97697.00
2023-05-03T03:55:55.248Z,97700.25
2023-05-03T03:58:21.852Z,97703.09
2023-05-03T04:00:48.612Z,97704.94
2023-05-03T04:03:16.264Z,97707.13
2023-05-03T04:05:42.896Z,97700.28
2023-05-03T04:08:09.532Z,97705.19
2023-05-03T04:10:35.935Z,97707.81
2023-05-03T04:13:02.567Z,97709.22
2023-05-03T04:15:29.023Z,97707.63
2023-05-03T04:17:55.647Z,97710.88
2023-05-03T04:20:23.453Z,97712.50
2023-05-03T04:22:49.971Z,97722.97
2023-05-03T04:25:19.391Z,97718.16
2023-05-03T04:27:47.985Z,97725.44
2023-05-03T04:30:15.360Z,97739.78
2023-05-03T04:32:43.028Z,97734.72
2023-05-03T04:35:11.036Z,97732.31
2023-05-03T04:37:38.014Z,97743.81
2023-05-03T04:40:12.053Z,97748.88
2023-05-03T04:42:39.159Z,97735.13
2023-05-03T04:45:10.041Z,97751.28
2023-05-03T04:47:37.157Z,97758.97
2023-05-03T04:50:04.048Z,97752.09
2023-05-03T04:52:30.716Z,97753.72
2023-05-03T04:54:57.121Z,97758.72
2023-05-03T04:57:23.616Z,97751.84
2023-05-03T04:59:50.313Z,97752.47
2023-05-03T05:02:16.818Z,97752.84
2023-05-03T05:04:43.193Z,97760.91
2023-05-03T05:07:09.851Z,97752.03
2023-05-03T05:09:36.409Z,97753.63
2023-05-03T05:12:04.089Z,97753.63
2023-05-03T05:14:31.422Z,97760.09
2023-05-03T05:16:58.762Z,97760.06
2023-05-03T05:19:25.266Z,97765.34
2023-05-03T05:21:52.255Z,97768.97
2023-05-03T05:24:18.844Z,97770.34
2023-05-03T05:26:45.607Z,97764.03
2023-05-03T05:29:11.986Z,97771.66
2023-05-03T05:31:38.491Z,97771.66
2023-05-03T05:34:05.522Z,97775.53
2023-05-03T05:36:32.258Z,97773.41
2023-05-03T05:38:58.810Z,97774.22
2023-05-03T05:41:25.632Z,97782.06
2023-05-03T05:43:52.102Z,97774.16
2023-05-03T05:46:21.379Z,97776.47
2023-05-03T05:48:48.170Z,97778.69
2023-05-03T05:51:14.714Z,97785.22
2023-05-03T05:53:41.211Z,97778.94
2023-05-03T05:56:08.626Z,97775.03
2023-05-03T05:58:37.430Z,97778.69
2023-05-03T06:01:04.907Z,97774.59
2023-05-03T06:03:31.909Z,97773.34
2023-05-03T06:05:58.501Z,97774.88
2023-05-03T06:08:24.930Z,97779.28
2023-05-03T06:10:53.106Z,97780.00
2023-05-03T06:13:19.888Z,97769.81
2023-05-03T06:15:46.558Z,97777.03
2023-05-03T06:18:13.257Z,97772.50
2023-05-03T06:20:40.361Z,97773.88
2023-05-03T06:23:06.903Z,97772.94
2023-05-03T06:25:33.563Z,97776.91
2023-05-03T06:27:59.989Z,97770.34
2023-05-03T06:30:28.728Z,97761.97
2023-05-03T06:32:55.481Z,97770.34
2023-05-03T06:35:22.242Z,97776.19
2023-05-03T06:37:49.681Z,97773.25
2023-05-03T06:40:16.313Z,97770.19
2023-05-03T06:42:42.938Z,97769.78
2023-05-03T06:45:09.879Z,97773.13
2023-05-03T06:47:37.248Z,97775.06
2023-05-03T06:50:04.750Z,97773.06
2023-05-03T06:52:31.432Z,97776.66
2023-05-03T06:54:57.852Z,97781.47
2023-05-03T06:57:26.474Z,97776.22
2023-05-03T06:59:54.583Z,97780.31
2023-05-03T07:02:21.704Z,97778.88
2023-05-03T07:04:48.293Z,97769.53
2023-05-03T07:07:15.867Z,97773.56
2023-05-03T07:09:43.867Z,97772.84
2023-05-03T07:12:11.603Z,97769.97
2023-05-03T07:14:38.639Z,97761.03
2023-05-03T07:17:05.352Z,97768.03
2023-05-03T07:19:32.086Z,97763.22
2023-05-03T07:21:58.956Z,97760.84
2023-05-03T07:24:26.071Z,97755.22
2023-05-03T07:26:53.403Z,97757.75
2023-05-03T07:29:19.931Z,97753.56
2023-05-03T07:31:46.859Z,97752.22
2023-05-03T07:34:13.233Z,97757.44
2023-05-03T07:36:39.953Z,97755.84
2023-05-03T07:39:07.380Z,97756.00
2023-05-03T07:41:33.742Z,97757.31
2023-05-03T07:44:00.359Z,97767.13
2023-05-03T07:46:27.117Z,97758.75
2023-05-03T07:48:53.681Z,97764.81
2023-05-03T07:51:20.871Z,97759.53
2023-05-03T07:53:47.609Z,97758.78
2023-05-03T07:56:14.029Z,97745.19
2023-05-03T07:58:41.187Z,97745.94
2023-05-03T08:01:10.643Z,97746.75
2023-05-03T08:03:37.508Z,97739.81
2023-05-03T08:06:04.506Z,97744.19
2023-05-03T08:08:32.190Z,97736.66
2023-05-03T08:10:58.738Z,97751.28
2023-05-03T08:13:25.222Z,97747.81
2023-05-03T08:15:52.093Z,97742.22
2023-05-03T08:18:19.238Z,97735.16
2023-05-03T08:20:47.325Z,97747.03
2023-05-03T08:23:13.835Z,97753.28
2023-05-03T08:25:40.540Z,97746.00
2023-05-03T08:28:08.242Z,97750.25
2023-05-03T08:30:35.808Z,97750.22
2023-05-03T08:33:02.350Z,97750.91
2023-05-03T08:35:28.927Z,97741.91
2023-05-03T08:37:55.484Z,97748.91
2023-05-03T08:40:22.291Z,97740.94
2023-05-03T08:42:50.036Z,97745.50
2023-05-03T08:45:17.173Z,97739.34
2023-05-03T08:47:46.985Z,97744.53
2023-05-03T08:50:15.580Z,97748.19
2023-05-03T08:52:43.867Z,97752.75
2023-05-03T08:55:11.142Z,97741.38
2023-05-03T08:57:37.928Z,97746.31
2023-05-03T09:00:06.547Z,97739.88
2023-05-03T09:02:36.835Z,97745.91
2023-05-03T09:05:05.220Z,97742.91
2023-05-03T09:07:31.844Z,97737.28
2023-05-03T09:10:00.331Z,97735.97
2023-05-03T09:12:37.715Z,97736.91
2023-05-03T09:15:06.347Z,97743.09
2023-05-03T09:17:33.217Z,97748.31
2023-05-03T09:20:00.879Z,97744.66
2023-05-03T09:22:32.512Z,97753.97
2023-05-03T09:25:01.023Z,97739.91
2023-05-03T09:27:28.267Z,97747.06
2023-05-03T09:29:55.022Z,97747.94
2023-05-03T09:32:25.583Z,97740.97
2023-05-03T09:35:08.418Z,97736.66
2023-05-03T09:37:40.560Z,97733.66
2023-05-03T09:40:11.678Z,97721.56
2023-05-03T09:42:38.384Z,97731.91
2023-05-03T09:45:05.684Z,97718.75
2023-05-03T09:47:35.691Z,97722.28
2023-05-03T09:50:02.213Z,97720.09
2023-05-03T09:52:30.402Z,97715.25
2023-05-03T09:54:57.469Z,97715.41
2023-05-03T09:57:24.802Z,97723.84
2023-05-03T09:59:51.832Z,97713.19
2023-05-03T10:02:18.345Z,97720.59
2023-05-03T10:04:53.224Z,97715.41
2023-05-03T10:07:23.139Z,97709.38
2023-05-03T10:09:49.956Z,97709.50
2023-05-03T10:12:17.360Z,97706.31
2023-05-03T10:14:46.329Z,97716.53
2023-05-03T10:17:39.456Z,97717.03
2023-05-03T10:20:30.175Z,97700.03
2023-05-03T11:56:25.650Z,97618.72
2023-05-03T11:58:58.284Z,97633.06
2023-05-03T12:01:26.033Z,97621.34
2023-05-03T12:04:01.928Z,97627.38
2023-05-03T12:06:32.068Z,97627.22
2023-05-03T12:09:03.379Z,97621.22
2023-05-03T12:11:33.507Z,97622.59
2023-05-03T12:14:03.438Z,97620.38
2023-05-03T12:16:51.035Z,97614.81
2023-05-03T12:19:33.215Z,97609.19
2023-05-03T12:24:33.044Z,97611.19
2023-05-03T12:27:02.725Z,97603.88
2023-05-03T12:29:34.705Z,97602.03
2023-05-03T12:32:04.443Z,97608.69
2023-05-03T12:34:35.648Z,97607.19
2023-05-03T12:37:04.760Z,97607.56
2023-05-03T12:39:32.936Z,97610.09
2023-05-03T12:44:29.350Z,97602.09
2023-05-03T12:46:56.484Z,97604.38
2023-05-03T12:49:26.498Z,97591.53
2023-05-03T12:52:11.442Z,97588.53
2023-05-03T12:54:41.824Z,97594.16
2023-05-03T12:57:15.345Z,97585.72
2023-05-03T12:59:43.646Z,97587.19
2023-05-03T13:04:56.798Z,97580.69
2023-05-03T13:07:29.634Z,97574.13
2023-05-03T13:12:27.709Z,97578.88
2023-05-03T13:14:55.216Z,97570.00
2023-05-03T13:17:22.954Z,97571.66
2023-05-03T13:19:51.615Z,97569.00
2023-05-03T13:22:18.770Z,97575.09
2023-05-03T13:24:46.512Z,97564.81
2023-05-03T13:27:13.190Z,97560.03
2023-05-03T13:29:40.257Z,97561.97
2023-05-03T13:32:07.050Z,97555.94
2023-05-03T13:34:34.346Z,97555.22
2023-05-03T13:39:33.010Z,97553.41
2023-05-03T13:41:59.437Z,97548.00
2023-05-03T13:44:26.069Z,97540.75
2023-05-03T13:46:53.489Z,97541.09
2023-05-03T13:52:04.837Z,97534.59
2023-05-03T13:54:32.218Z,97546.22
2023-05-03T13:56:58.839Z,97542.63
2023-05-03T13:59:25.515Z,97542.81
2023-05-03T14:01:52.138Z,97542.00
2023-05-03T14:04:19.907Z,97527.03
2023-05-03T14:06:47.151Z,97524.72
2023-05-03T14:09:13.976Z,97523.72
2023-05-03T14:11:41.244Z,97518.47
2023-05-03T14:14:07.753Z,97519.38
2023-05-03T14:19:03.768Z,97519.09
2023-05-03T14:21:31.665Z,97522.00
2023-05-03T14:23:58.050Z,97522.25
2023-05-03T14:26:24.743Z,97517.91
2023-05-03T14:28:51.437Z,97510.94
2023-05-03T14:31:17.953Z,97516.84
2023-05-03T14:33:44.432Z,97516.63
2023-05-03T14:36:11.574Z,97515.50
2023-05-03T14:38:37.976Z,97509.41
2023-05-03T14:41:04.871Z,97517.97
2023-05-03T14:43:31.743Z,97498.06
2023-05-03T14:45:58.147Z,97503.31
2023-05-03T14:48:24.981Z,97496.59
2023-05-03T14:50:52.092Z,97486.88
2023-05-03T14:53:18.804Z,97492.72
2023-05-03T14:55:46.134Z,97484.09
2023-05-03T15:00:42.526Z,97481.16
2023-05-03T15:03:12.992Z,97483.16
2023-05-03T15:05:46.756Z,97474.25
2023-05-03T15:08:19.896Z,97483.25
2023-05-03T15:10:47.522Z,97475.91
2023-05-03T15:13:15.254Z,97477.66
2023-05-03T15:15:45.926Z,97482.41
2023-05-03T15:18:14.303Z,97493.66
2023-05-03T15:20:40.911Z,97477.69
2023-05-03T15:23:07.370Z,97486.25
2023-05-03T15:25:33.845Z,97487.28
2023-05-03T15:28:03.705Z,97490.72
2023-05-03T15:30:31.237Z,97485.50
2023-05-03T15:32:58.020Z,97484.91
2023-05-03T15:35:24.702Z,97484.97
